This is the latest recevied weather packets stored in our database for station/object VA3BOO. If no packets are shown the sender has not sent any weather packets the latest 1 day(s).
| Time | Temp. | Humidity | Pressure | Rain* | Wind** | Luminosity | Snow |
|---|---|---|---|---|---|---|---|
| 1777982104 | 15.56° C | 76% | 1000.8 hPa | 0 mm | 0.45 m/s, 163° | 51 W/m² | - |
| 1777981804 | 15.56° C | 74% | 1000.5 hPa | 0 mm | 0.45 m/s, 173° | 114 W/m² | - |
| 1777981504 | 16.11° C | 74% | 1000.6 hPa | 0 mm | 1.34 m/s, 187° | 71 W/m² | - |
| 1777981204 | 16.11° C | 75% | 1000.5 hPa | 0 mm | 1.79 m/s, 167° | 59 W/m² | - |
| 1777980905 | 15.56° C | 76% | 1000.4 hPa | 0 mm | 1.34 m/s, 169° | 53 W/m² | - |
| 1777980604 | 15° C | 78% | 1000.6 hPa | 0 mm | 0.89 m/s, 211° | 22 W/m² | - |
| 1777980304 | 14.44° C | 80% | 1000.3 hPa | 0 mm | 0.89 m/s, 291° | 41 W/m² | - |
| 1777980004 | 15° C | 80% | 1000.6 hPa | 0 mm | 0.89 m/s, 292° | 41 W/m² | - |
| 1777979704 | 14.44° C | 81% | 1000.5 hPa | 0 mm | 0.89 m/s, 275° | 26 W/m² | - |
| 1777979404 | 13.89° C | 83% | 1000.4 hPa | 0 mm | 0.45 m/s, 264° | 43 W/m² | - |
| 1777979105 | 13.33° C | 85% | 1000.3 hPa | 0 mm | 0.45 m/s, 236° | 77 W/m² | - |
| 1777978804 | 13.33° C | 86% | 1000.5 hPa | 0 mm | 0.45 m/s, 232° | 44 W/m² | - |
| 1777978504 | 13.33° C | 87% | 1000.3 hPa | 0 mm | 0.45 m/s, 241° | 37 W/m² | - |
| 1777978204 | 12.78° C | 90% | 1000.1 hPa | 0 mm | 0 m/s | 44 W/m² | - |
| 1777977904 | 12.22° C | 91% | 1000.1 hPa | 0 mm | 0 m/s | 36 W/m² | - |
| 1777977604 | 12.22° C | 91% | 1000.2 hPa | 0 mm | 0 m/s | 27 W/m² | - |
| 1777977304 | 12.22° C | 90% | 1000.4 hPa | 0 mm | 0 m/s | 23 W/m² | - |
| 1777977004 | 12.22° C | 90% | 1000.3 hPa | 0.25 mm | 0 m/s | 19 W/m² | - |
| 1777976704 | 12.22° C | 90% | 1000.1 hPa | 0.25 mm | 0 m/s | 14 W/m² | - |
| 1777976404 | 12.22° C | 90% | 1000.1 hPa | 0.25 mm | 0 m/s | 12 W/m² | - |
| 1777976104 | 12.22° C | 89% | 1000.3 hPa | 0.25 mm | 0 m/s | 9 W/m² | - |
| 1777975804 | 12.22° C | 89% | 1000 hPa | 1.02 mm | 0 m/s | 8 W/m² | - |
| 1777975504 | 12.22° C | 89% | 1000.2 hPa | 1.52 mm | 0.45 m/s, 168° | 2 W/m² | - |
| 1777975204 | 12.22° C | 88% | 1000.2 hPa | 1.78 mm | 0.45 m/s, 176° | 2 W/m² | - |
| 1777974904 | 12.22° C | 89% | 1000.5 hPa | 1.78 mm | 0.45 m/s, 178° | 1 W/m² | - |
* Rain latest hour (hover to see other rain measurements)
** Current wind speed in m/s (hover to see current wind gust speed)